Etusivu
METAR-TAF:

METAR-TAF

Lentoasemat :

Beaumont, Texas, Yhdysvallat

Leveyspiiri: 30-04-13N, Pituuspiiri: 094-12-54W, korkeus merenpinnasta: 10 m

Tämänhetkinen sää

Tämä raportti tehtiin 27 minuuttia sitten, kello 07.35 UTC
Tuuli 3 kn idästä
Lämpötila 20°C
Kosteus 88%
Ilmanpaine 1015 hPa
Näkyvyys: 16.1 km
Hajanaisia pilviä 1500 ft:n korkeudessa
Hajanaisia pilviä 2500 ft:n korkeudessa
Hajonneita pilviä 3000 ft:n korkeudessa

METAR: KBMT 240735Z AUTO 08003KT 10SM SCT015 SCT025 BKN030 20/18 A2997 RMK AO2 T02000182

Aika: 02:02 (08:02 UTC)


TAF: puuttuu

Säähavainnot ja -ennusteet yli 4000 lentoasemalta (METAR- ja TAF-raportit).

Käytössä olevat sääasemat on merkitty karttaan keltaisilla ja punaisilla pisteillä.

Aseta hiiri pisteen päälle nähdäksesi sääaseman nimen.

Klikkaa sitten nähdäksesi säähavainnot ja -ennusteet.

Kartan vaihtaminen: klikkaa mustalla rastilla varustettuja vihreitä pisteitä, niin voit zoomata sisään; viivalla varustettua vihreää pistettä, niin voit zoomata ulos tai vihreitä nuolia, niin pääset viereisille kartoille.


METAR-TAF: